sensor_id;sensor_type;location;lat;lon;timestamp;P1;durP1;ratioP1;P2;durP2;ratioP2
13832;SDS011;6987;19.472;-99.276;2022-11-25T00:02:12;24.05;;;19.02;;
13832;SDS011;6987;19.472;-99.276;2022-11-25T00:04:41;22.75;;;18.52;;
13832;SDS011;6987;19.472;-99.276;2022-11-25T00:07:11;24.02;;;17.10;;
13832;SDS011;6987;19.472;-99.276;2022-11-25T00:09:42;23.65;;;17.45;;
13832;SDS011;6987;19.472;-99.276;2022-11-25T00:12:10;22.38;;;17.25;;
13832;SDS011;6987;19.472;-99.276;2022-11-25T00:14:39;24.88;;;17.05;;
13832;SDS011;6987;19.472;-99.276;2022-11-25T00:17:08;23.92;;;16.70;;
13832;SDS011;6987;19.472;-99.276;2022-11-25T00:19:39;20.15;;;15.88;;
13832;SDS011;6987;19.472;-99.276;2022-11-25T00:22:07;20.48;;;16.90;;
13832;SDS011;6987;19.472;-99.276;2022-11-25T00:24:38;20.25;;;16.90;;
13832;SDS011;6987;19.472;-99.276;2022-11-25T00:27:07;29.30;;;18.20;;
13832;SDS011;6987;19.472;-99.276;2022-11-25T00:29:36;21.98;;;16.17;;
13832;SDS011;6987;19.472;-99.276;2022-11-25T00:32:05;21.88;;;16.65;;
13832;SDS011;6987;19.472;-99.276;2022-11-25T00:34:34;22.10;;;16.65;;
13832;SDS011;6987;19.472;-99.276;2022-11-25T00:37:03;22.98;;;16.35;;
13832;SDS011;6987;19.472;-99.276;2022-11-25T00:39:32;16.15;;;14.05;;
13832;SDS011;6987;19.472;-99.276;2022-11-25T00:42:03;18.65;;;15.05;;
13832;SDS011;6987;19.472;-99.276;2022-11-25T00:44:48;22.65;;;16.60;;
13832;SDS011;6987;19.472;-99.276;2022-11-25T00:47:19;20.98;;;16.20;;
13832;SDS011;6987;19.472;-99.276;2022-11-25T00:49:49;21.20;;;16.67;;
13832;SDS011;6987;19.472;-99.276;2022-11-25T00:52:18;20.67;;;16.70;;
13832;SDS011;6987;19.472;-99.276;2022-11-25T00:54:49;23.70;;;17.20;;
13832;SDS011;6987;19.472;-99.276;2022-11-25T00:57:20;32.33;;;16.15;;
13832;SDS011;6987;19.472;-99.276;2022-11-25T00:59:49;25.05;;;16.60;;
13832;SDS011;6987;19.472;-99.276;2022-11-25T01:02:18;29.60;;;18.60;;
13832;SDS011;6987;19.472;-99.276;2022-11-25T01:04:47;25.58;;;16.58;;
13832;SDS011;6987;19.472;-99.276;2022-11-25T01:07:16;28.92;;;17.15;;
13832;SDS011;6987;19.472;-99.276;2022-11-25T01:09:47;21.05;;;16.63;;
13832;SDS011;6987;19.472;-99.276;2022-11-25T01:12:19;24.58;;;17.25;;
13832;SDS011;6987;19.472;-99.276;2022-11-25T01:14:48;24.38;;;17.88;;
13832;SDS011;6987;19.472;-99.276;2022-11-25T01:17:17;23.65;;;17.45;;
13832;SDS011;6987;19.472;-99.276;2022-11-25T01:19:46;20.70;;;15.13;;
13832;SDS011;6987;19.472;-99.276;2022-11-25T01:22:17;29.13;;;17.23;;
13832;SDS011;6987;19.472;-99.276;2022-11-25T01:24:45;28.77;;;18.65;;
13832;SDS011;6987;19.472;-99.276;2022-11-25T01:27:16;27.55;;;18.17;;
13832;SDS011;6987;19.472;-99.276;2022-11-25T01:29:48;31.85;;;19.63;;
13832;SDS011;6987;19.472;-99.276;2022-11-25T01:32:17;21.27;;;16.92;;
13832;SDS011;6987;19.472;-99.276;2022-11-25T01:34:46;25.73;;;17.50;;
13832;SDS011;6987;19.472;-99.276;2022-11-25T01:37:15;24.52;;;16.58;;
13832;SDS011;6987;19.472;-99.276;2022-11-25T01:39:44;47.20;;;18.92;;
13832;SDS011;6987;19.472;-99.276;2022-11-25T01:42:13;32.95;;;18.90;;
13832;SDS011;6987;19.472;-99.276;2022-11-25T01:44:41;42.10;;;20.17;;
13832;SDS011;6987;19.472;-99.276;2022-11-25T01:47:13;31.42;;;18.50;;
13832;SDS011;6987;19.472;-99.276;2022-11-25T01:49:45;28.33;;;18.40;;
13832;SDS011;6987;19.472;-99.276;2022-11-25T01:52:18;30.73;;;18.80;;
13832;SDS011;6987;19.472;-99.276;2022-11-25T01:54:49;28.80;;;18.80;;
13832;SDS011;6987;19.472;-99.276;2022-11-25T01:57:23;27.95;;;18.60;;
13832;SDS011;6987;19.472;-99.276;2022-11-25T01:59:53;39.05;;;18.27;;
13832;SDS011;6987;19.472;-99.276;2022-11-25T02:02:25;30.48;;;17.67;;
13832;SDS011;6987;19.472;-99.276;2022-11-25T02:04:55;29.15;;;18.83;;
13832;SDS011;6987;19.472;-99.276;2022-11-25T02:07:25;46.97;;;19.40;;
13832;SDS011;6987;19.472;-99.276;2022-11-25T02:09:55;28.58;;;18.90;;
13832;SDS011;6987;19.472;-99.276;2022-11-25T02:12:25;30.23;;;18.55;;
13832;SDS011;6987;19.472;-99.276;2022-11-25T02:14:54;28.02;;;20.75;;
13832;SDS011;6987;19.472;-99.276;2022-11-25T02:17:27;29.27;;;20.50;;
13832;SDS011;6987;19.472;-99.276;2022-11-25T02:19:58;32.30;;;21.60;;
13832;SDS011;6987;19.472;-99.276;2022-11-25T02:22:32;32.97;;;22.27;;
13832;SDS011;6987;19.472;-99.276;2022-11-25T02:25:09;28.52;;;22.67;;
13832;SDS011;6987;19.472;-99.276;2022-11-25T02:27:39;38.58;;;22.00;;
13832;SDS011;6987;19.472;-99.276;2022-11-25T02:30:09;33.15;;;20.95;;
13832;SDS011;6987;19.472;-99.276;2022-11-25T02:32:41;36.13;;;20.42;;
13832;SDS011;6987;19.472;-99.276;2022-11-25T02:35:22;29.58;;;22.65;;
13832;SDS011;6987;19.472;-99.276;2022-11-25T02:37:52;34.20;;;21.85;;
13832;SDS011;6987;19.472;-99.276;2022-11-25T02:40:24;30.77;;;22.67;;
13832;SDS011;6987;19.472;-99.276;2022-11-25T02:42:53;31.02;;;21.20;;
13832;SDS011;6987;19.472;-99.276;2022-11-25T02:45:25;34.90;;;20.52;;
13832;SDS011;6987;19.472;-99.276;2022-11-25T02:47:56;35.13;;;21.15;;
13832;SDS011;6987;19.472;-99.276;2022-11-25T02:50:25;33.17;;;22.40;;
13832;SDS011;6987;19.472;-99.276;2022-11-25T02:52:54;30.38;;;21.70;;
13832;SDS011;6987;19.472;-99.276;2022-11-25T02:55:24;33.97;;;23.80;;
13832;SDS011;6987;19.472;-99.276;2022-11-25T02:57:53;28.70;;;21.55;;
13832;SDS011;6987;19.472;-99.276;2022-11-25T03:00:22;38.10;;;22.77;;
13832;SDS011;6987;19.472;-99.276;2022-11-25T03:02:51;38.08;;;24.40;;
13832;SDS011;6987;19.472;-99.276;2022-11-25T03:05:22;37.55;;;24.35;;
13832;SDS011;6987;19.472;-99.276;2022-11-25T03:07:51;34.80;;;22.85;;
13832;SDS011;6987;19.472;-99.276;2022-11-25T03:10:20;33.08;;;23.95;;
13832;SDS011;6987;19.472;-99.276;2022-11-25T03:12:52;40.30;;;23.95;;
13832;SDS011;6987;19.472;-99.276;2022-11-25T03:15:21;36.80;;;23.90;;
13832;SDS011;6987;19.472;-99.276;2022-11-25T03:17:52;36.38;;;24.42;;
13832;SDS011;6987;19.472;-99.276;2022-11-25T03:20:22;33.72;;;23.63;;
13832;SDS011;6987;19.472;-99.276;2022-11-25T03:22:52;42.22;;;24.20;;
13832;SDS011;6987;19.472;-99.276;2022-11-25T03:25:20;34.25;;;24.80;;
13832;SDS011;6987;19.472;-99.276;2022-11-25T03:27:52;34.72;;;23.90;;
13832;SDS011;6987;19.472;-99.276;2022-11-25T03:30:24;42.33;;;25.92;;
13832;SDS011;6987;19.472;-99.276;2022-11-25T03:32:53;31.85;;;22.35;;
13832;SDS011;6987;19.472;-99.276;2022-11-25T03:35:23;30.27;;;23.38;;
13832;SDS011;6987;19.472;-99.276;2022-11-25T03:37:52;30.63;;;22.80;;
13832;SDS011;6987;19.472;-99.276;2022-11-25T03:40:21;30.17;;;23.08;;
13832;SDS011;6987;19.472;-99.276;2022-11-25T03:42:53;36.83;;;24.05;;
13832;SDS011;6987;19.472;-99.276;2022-11-25T03:45:22;42.25;;;23.90;;
13832;SDS011;6987;19.472;-99.276;2022-11-25T03:47:51;38.72;;;25.02;;
13832;SDS011;6987;19.472;-99.276;2022-11-25T03:50:20;36.08;;;22.63;;
13832;SDS011;6987;19.472;-99.276;2022-11-25T03:52:48;32.80;;;22.60;;
13832;SDS011;6987;19.472;-99.276;2022-11-25T03:55:17;31.98;;;23.50;;
13832;SDS011;6987;19.472;-99.276;2022-11-25T03:57:46;34.78;;;24.88;;
13832;SDS011;6987;19.472;-99.276;2022-11-25T04:00:17;39.22;;;23.75;;
13832;SDS011;6987;19.472;-99.276;2022-11-25T04:02:47;32.10;;;24.60;;
13832;SDS011;6987;19.472;-99.276;2022-11-25T04:05:16;33.10;;;21.98;;
13832;SDS011;6987;19.472;-99.276;2022-11-25T04:07:45;37.10;;;23.98;;
13832;SDS011;6987;19.472;-99.276;2022-11-25T04:10:14;33.13;;;23.25;;
13832;SDS011;6987;19.472;-99.276;2022-11-25T04:12:45;33.60;;;23.63;;
13832;SDS011;6987;19.472;-99.276;2022-11-25T04:15:12;31.65;;;22.38;;
13832;SDS011;6987;19.472;-99.276;2022-11-25T04:17:43;29.02;;;23.27;;
13832;SDS011;6987;19.472;-99.276;2022-11-25T04:20:12;31.38;;;22.48;;
13832;SDS011;6987;19.472;-99.276;2022-11-25T04:22:41;33.53;;;23.05;;
13832;SDS011;6987;19.472;-99.276;2022-11-25T04:25:11;35.13;;;23.88;;
13832;SDS011;6987;19.472;-99.276;2022-11-25T04:27:41;29.88;;;23.23;;
13832;SDS011;6987;19.472;-99.276;2022-11-25T04:30:10;34.35;;;23.67;;
13832;SDS011;6987;19.472;-99.276;2022-11-25T04:32:38;30.15;;;24.27;;
13832;SDS011;6987;19.472;-99.276;2022-11-25T04:35:09;31.77;;;23.42;;
13832;SDS011;6987;19.472;-99.276;2022-11-25T04:37:40;32.33;;;23.38;;
13832;SDS011;6987;19.472;-99.276;2022-11-25T04:40:09;31.60;;;22.90;;
13832;SDS011;6987;19.472;-99.276;2022-11-25T04:42:38;28.30;;;21.73;;
13832;SDS011;6987;19.472;-99.276;2022-11-25T04:45:07;30.42;;;22.40;;
13832;SDS011;6987;19.472;-99.276;2022-11-25T04:47:37;29.48;;;22.20;;
13832;SDS011;6987;19.472;-99.276;2022-11-25T04:50:07;30.73;;;22.85;;
13832;SDS011;6987;19.472;-99.276;2022-11-25T04:52:38;35.33;;;25.23;;
13832;SDS011;6987;19.472;-99.276;2022-11-25T04:55:07;34.05;;;22.67;;
13832;SDS011;6987;19.472;-99.276;2022-11-25T04:57:36;32.35;;;23.25;;
13832;SDS011;6987;19.472;-99.276;2022-11-25T05:00:05;34.42;;;24.20;;
13832;SDS011;6987;19.472;-99.276;2022-11-25T05:02:34;29.58;;;23.30;;
13832;SDS011;6987;19.472;-99.276;2022-11-25T05:05:03;32.80;;;22.98;;
13832;SDS011;6987;19.472;-99.276;2022-11-25T05:07:32;32.17;;;22.45;;
13832;SDS011;6987;19.472;-99.276;2022-11-25T05:10:03;32.10;;;24.00;;
13832;SDS011;6987;19.472;-99.276;2022-11-25T05:12:32;30.55;;;21.83;;
13832;SDS011;6987;19.472;-99.276;2022-11-25T05:15:01;33.42;;;24.73;;
13832;SDS011;6987;19.472;-99.276;2022-11-25T05:17:32;33.67;;;23.85;;
13832;SDS011;6987;19.472;-99.276;2022-11-25T05:20:01;34.10;;;23.38;;
13832;SDS011;6987;19.472;-99.276;2022-11-25T05:22:32;33.25;;;23.35;;
13832;SDS011;6987;19.472;-99.276;2022-11-25T05:25:03;30.08;;;23.42;;
13832;SDS011;6987;19.472;-99.276;2022-11-25T05:27:32;31.10;;;22.95;;
13832;SDS011;6987;19.472;-99.276;2022-11-25T05:30:01;33.40;;;23.92;;
13832;SDS011;6987;19.472;-99.276;2022-11-25T05:32:32;28.25;;;23.38;;
13832;SDS011;6987;19.472;-99.276;2022-11-25T05:35:02;25.95;;;22.23;;
13832;SDS011;6987;19.472;-99.276;2022-11-25T05:37:31;31.88;;;23.58;;
13832;SDS011;6987;19.472;-99.276;2022-11-25T05:40:04;30.45;;;22.92;;
13832;SDS011;6987;19.472;-99.276;2022-11-25T05:42:33;33.55;;;24.02;;
13832;SDS011;6987;19.472;-99.276;2022-11-25T05:45:04;33.42;;;24.17;;
13832;SDS011;6987;19.472;-99.276;2022-11-25T05:47:33;31.02;;;24.05;;
13832;SDS011;6987;19.472;-99.276;2022-11-25T05:50:04;30.85;;;22.40;;
13832;SDS011;6987;19.472;-99.276;2022-11-25T05:52:33;30.52;;;23.08;;
13832;SDS011;6987;19.472;-99.276;2022-11-25T05:55:04;31.88;;;24.40;;
13832;SDS011;6987;19.472;-99.276;2022-11-25T05:57:35;34.58;;;23.02;;
13832;SDS011;6987;19.472;-99.276;2022-11-25T06:00:04;31.13;;;22.35;;
13832;SDS011;6987;19.472;-99.276;2022-11-25T06:02:34;31.17;;;23.13;;
13832;SDS011;6987;19.472;-99.276;2022-11-25T06:05:04;30.75;;;23.67;;
13832;SDS011;6987;19.472;-99.276;2022-11-25T06:07:33;30.10;;;22.98;;
13832;SDS011;6987;19.472;-99.276;2022-11-25T06:10:04;30.00;;;22.80;;
13832;SDS011;6987;19.472;-99.276;2022-11-25T06:12:33;33.63;;;22.67;;
13832;SDS011;6987;19.472;-99.276;2022-11-25T06:15:03;27.13;;;21.15;;
13832;SDS011;6987;19.472;-99.276;2022-11-25T06:17:32;28.20;;;22.17;;
13832;SDS011;6987;19.472;-99.276;2022-11-25T06:20:03;32.75;;;23.88;;
13832;SDS011;6987;19.472;-99.276;2022-11-25T06:22:32;29.70;;;23.10;;
13832;SDS011;6987;19.472;-99.276;2022-11-25T06:25:01;30.38;;;23.88;;
13832;SDS011;6987;19.472;-99.276;2022-11-25T06:27:31;26.92;;;20.30;;
13832;SDS011;6987;19.472;-99.276;2022-11-25T06:30:00;26.80;;;22.00;;
13832;SDS011;6987;19.472;-99.276;2022-11-25T06:32:29;28.38;;;22.80;;
13832;SDS011;6987;19.472;-99.276;2022-11-25T06:34:58;32.28;;;22.55;;
13832;SDS011;6987;19.472;-99.276;2022-11-25T06:37:26;28.70;;;21.30;;
13832;SDS011;6987;19.472;-99.276;2022-11-25T06:39:55;38.72;;;23.35;;
13832;SDS011;6987;19.472;-99.276;2022-11-25T06:42:25;26.63;;;22.23;;
13832;SDS011;6987;19.472;-99.276;2022-11-25T06:44:55;31.38;;;22.73;;
13832;SDS011;6987;19.472;-99.276;2022-11-25T06:47:24;28.27;;;22.23;;
13832;SDS011;6987;19.472;-99.276;2022-11-25T06:49:54;30.23;;;22.15;;
13832;SDS011;6987;19.472;-99.276;2022-11-25T06:52:25;30.40;;;23.85;;
13832;SDS011;6987;19.472;-99.276;2022-11-25T06:54:54;25.95;;;21.70;;
13832;SDS011;6987;19.472;-99.276;2022-11-25T06:57:24;28.88;;;22.67;;
13832;SDS011;6987;19.472;-99.276;2022-11-25T06:59:55;30.42;;;22.50;;
13832;SDS011;6987;19.472;-99.276;2022-11-25T07:02:24;27.98;;;22.88;;
13832;SDS011;6987;19.472;-99.276;2022-11-25T07:04:53;29.40;;;22.52;;
13832;SDS011;6987;19.472;-99.276;2022-11-25T07:07:21;27.10;;;21.00;;
13832;SDS011;6987;19.472;-99.276;2022-11-25T07:09:52;28.08;;;21.40;;
13832;SDS011;6987;19.472;-99.276;2022-11-25T07:12:21;29.70;;;21.85;;
13832;SDS011;6987;19.472;-99.276;2022-11-25T07:14:50;28.92;;;21.17;;
13832;SDS011;6987;19.472;-99.276;2022-11-25T07:17:20;26.70;;;21.48;;
13832;SDS011;6987;19.472;-99.276;2022-11-25T07:19:51;28.75;;;22.02;;
13832;SDS011;6987;19.472;-99.276;2022-11-25T07:22:20;31.13;;;22.52;;
13832;SDS011;6987;19.472;-99.276;2022-11-25T07:24:49;26.45;;;20.92;;
13832;SDS011;6987;19.472;-99.276;2022-11-25T07:27:19;25.90;;;20.95;;
13832;SDS011;6987;19.472;-99.276;2022-11-25T07:29:48;25.15;;;20.45;;
13832;SDS011;6987;19.472;-99.276;2022-11-25T07:32:17;27.55;;;21.23;;
13832;SDS011;6987;19.472;-99.276;2022-11-25T07:34:50;27.63;;;20.70;;
13832;SDS011;6987;19.472;-99.276;2022-11-25T07:37:19;21.55;;;19.25;;
13832;SDS011;6987;19.472;-99.276;2022-11-25T07:39:48;23.48;;;20.13;;
13832;SDS011;6987;19.472;-99.276;2022-11-25T07:42:16;27.50;;;20.75;;
13832;SDS011;6987;19.472;-99.276;2022-11-25T07:44:47;24.52;;;19.75;;
13832;SDS011;6987;19.472;-99.276;2022-11-25T07:47:16;27.45;;;20.65;;
13832;SDS011;6987;19.472;-99.276;2022-11-25T07:49:45;24.02;;;20.30;;
13832;SDS011;6987;19.472;-99.276;2022-11-25T07:52:17;25.70;;;20.35;;
13832;SDS011;6987;19.472;-99.276;2022-11-25T07:54:46;29.33;;;22.13;;
13832;SDS011;6987;19.472;-99.276;2022-11-25T07:57:16;26.98;;;21.65;;
13832;SDS011;6987;19.472;-99.276;2022-11-25T07:59:45;28.35;;;21.08;;
13832;SDS011;6987;19.472;-99.276;2022-11-25T08:02:14;26.52;;;20.65;;
13832;SDS011;6987;19.472;-99.276;2022-11-25T08:04:42;24.90;;;20.58;;
13832;SDS011;6987;19.472;-99.276;2022-11-25T08:07:13;25.08;;;20.20;;
13832;SDS011;6987;19.472;-99.276;2022-11-25T08:09:45;25.25;;;20.90;;
13832;SDS011;6987;19.472;-99.276;2022-11-25T08:12:16;29.15;;;22.05;;
13832;SDS011;6987;19.472;-99.276;2022-11-25T08:14:45;27.70;;;21.80;;
13832;SDS011;6987;19.472;-99.276;2022-11-25T08:17:14;25.77;;;21.42;;
13832;SDS011;6987;19.472;-99.276;2022-11-25T08:19:43;24.67;;;20.33;;
13832;SDS011;6987;19.472;-99.276;2022-11-25T08:22:12;25.17;;;20.88;;
13832;SDS011;6987;19.472;-99.276;2022-11-25T08:24:40;28.40;;;21.92;;
13832;SDS011;6987;19.472;-99.276;2022-11-25T08:27:12;26.08;;;21.40;;
13832;SDS011;6987;19.472;-99.276;2022-11-25T08:29:41;27.58;;;22.17;;
13832;SDS011;6987;19.472;-99.276;2022-11-25T08:32:10;28.52;;;21.40;;
13832;SDS011;6987;19.472;-99.276;2022-11-25T08:34:41;28.35;;;22.08;;
13832;SDS011;6987;19.472;-99.276;2022-11-25T08:37:10;27.58;;;21.00;;
13832;SDS011;6987;19.472;-99.276;2022-11-25T08:39:40;28.13;;;22.10;;
13832;SDS011;6987;19.472;-99.276;2022-11-25T08:42:09;30.05;;;22.67;;
13832;SDS011;6987;19.472;-99.276;2022-11-25T08:44:40;24.33;;;21.45;;
13832;SDS011;6987;19.472;-99.276;2022-11-25T08:47:08;27.13;;;20.88;;
13832;SDS011;6987;19.472;-99.276;2022-11-25T08:49:37;26.27;;;20.80;;
13832;SDS011;6987;19.472;-99.276;2022-11-25T08:52:06;31.58;;;22.70;;
13832;SDS011;6987;19.472;-99.276;2022-11-25T08:54:37;23.02;;;19.98;;
13832;SDS011;6987;19.472;-99.276;2022-11-25T08:57:06;22.88;;;20.33;;
13832;SDS011;6987;19.472;-99.276;2022-11-25T08:59:37;24.38;;;19.58;;
13832;SDS011;6987;19.472;-99.276;2022-11-25T09:02:07;27.00;;;20.80;;
13832;SDS011;6987;19.472;-99.276;2022-11-25T09:04:36;21.52;;;18.95;;
13832;SDS011;6987;19.472;-99.276;2022-11-25T09:07:05;28.15;;;21.02;;
13832;SDS011;6987;19.472;-99.276;2022-11-25T09:09:34;27.75;;;21.27;;
13832;SDS011;6987;19.472;-99.276;2022-11-25T09:12:03;31.23;;;22.30;;
13832;SDS011;6987;19.472;-99.276;2022-11-25T09:14:32;25.40;;;20.33;;
13832;SDS011;6987;19.472;-99.276;2022-11-25T09:17:01;25.08;;;20.67;;
13832;SDS011;6987;19.472;-99.276;2022-11-25T09:19:32;27.38;;;21.05;;
13832;SDS011;6987;19.472;-99.276;2022-11-25T09:22:01;25.77;;;20.55;;
13832;SDS011;6987;19.472;-99.276;2022-11-25T09:24:29;28.17;;;21.17;;
13832;SDS011;6987;19.472;-99.276;2022-11-25T09:27:00;27.30;;;21.33;;
13832;SDS011;6987;19.472;-99.276;2022-11-25T09:29:30;26.13;;;20.67;;
13832;SDS011;6987;19.472;-99.276;2022-11-25T09:31:59;23.98;;;19.40;;
13832;SDS011;6987;19.472;-99.276;2022-11-25T09:34:28;21.60;;;19.35;;
13832;SDS011;6987;19.472;-99.276;2022-11-25T09:36:59;24.77;;;20.70;;
13832;SDS011;6987;19.472;-99.276;2022-11-25T09:39:29;24.88;;;20.38;;
13832;SDS011;6987;19.472;-99.276;2022-11-25T09:42:03;30.65;;;21.52;;
13832;SDS011;6987;19.472;-99.276;2022-11-25T09:44:56;26.73;;;20.60;;
13832;SDS011;6987;19.472;-99.276;2022-11-25T09:47:46;26.63;;;20.25;;
13832;SDS011;6987;19.472;-99.276;2022-11-25T09:50:19;25.17;;;20.38;;
13832;SDS011;6987;19.472;-99.276;2022-11-25T09:52:55;28.85;;;21.83;;
13832;SDS011;6987;19.472;-99.276;2022-11-25T09:55:34;28.98;;;21.63;;
13832;SDS011;6987;19.472;-99.276;2022-11-25T09:58:12;28.92;;;20.20;;
13832;SDS011;6987;19.472;-99.276;2022-11-25T10:00:44;23.10;;;19.85;;
13832;SDS011;6987;19.472;-99.276;2022-11-25T10:03:16;24.23;;;19.48;;
13832;SDS011;6987;19.472;-99.276;2022-11-25T10:05:48;20.83;;;18.65;;
13832;SDS011;6987;19.472;-99.276;2022-11-25T10:08:26;26.00;;;19.88;;
13832;SDS011;6987;19.472;-99.276;2022-11-25T10:10:57;22.83;;;18.88;;
13832;SDS011;6987;19.472;-99.276;2022-11-25T10:13:31;26.50;;;20.77;;
13832;SDS011;6987;19.472;-99.276;2022-11-25T10:16:02;22.75;;;20.30;;
13832;SDS011;6987;19.472;-99.276;2022-11-25T10:18:33;26.42;;;20.65;;
13832;SDS011;6987;19.472;-99.276;2022-11-25T10:21:07;25.45;;;20.77;;
13832;SDS011;6987;19.472;-99.276;2022-11-25T10:23:41;25.95;;;20.58;;
13832;SDS011;6987;19.472;-99.276;2022-11-25T10:26:10;24.50;;;20.27;;
13832;SDS011;6987;19.472;-99.276;2022-11-25T10:28:40;27.98;;;21.40;;
13832;SDS011;6987;19.472;-99.276;2022-11-25T10:31:13;28.80;;;21.70;;
13832;SDS011;6987;19.472;-99.276;2022-11-25T10:33:43;25.05;;;20.55;;
13832;SDS011;6987;19.472;-99.276;2022-11-25T10:36:14;25.60;;;21.35;;
13832;SDS011;6987;19.472;-99.276;2022-11-25T10:38:49;27.88;;;21.77;;
13832;SDS011;6987;19.472;-99.276;2022-11-25T10:41:22;26.27;;;20.88;;
13832;SDS011;6987;19.472;-99.276;2022-11-25T10:43:52;27.90;;;22.13;;
13832;SDS011;6987;19.472;-99.276;2022-11-25T10:46:23;22.95;;;20.45;;
13832;SDS011;6987;19.472;-99.276;2022-11-25T10:48:59;23.00;;;19.35;;
13832;SDS011;6987;19.472;-99.276;2022-11-25T10:51:34;28.58;;;22.70;;
13832;SDS011;6987;19.472;-99.276;2022-11-25T10:54:12;25.55;;;19.95;;
13832;SDS011;6987;19.472;-99.276;2022-11-25T10:56:50;28.05;;;21.55;;
13832;SDS011;6987;19.472;-99.276;2022-11-25T10:59:22;26.15;;;21.27;;
13832;SDS011;6987;19.472;-99.276;2022-11-25T11:01:51;31.90;;;21.55;;
13832;SDS011;6987;19.472;-99.276;2022-11-25T11:04:20;28.10;;;21.40;;
13832;SDS011;6987;19.472;-99.276;2022-11-25T11:06:51;29.38;;;21.88;;
13832;SDS011;6987;19.472;-99.276;2022-11-25T11:09:32;31.92;;;21.20;;
13832;SDS011;6987;19.472;-99.276;2022-11-25T11:12:12;29.80;;;22.27;;
13832;SDS011;6987;19.472;-99.276;2022-11-25T11:14:41;26.13;;;21.05;;
13832;SDS011;6987;19.472;-99.276;2022-11-25T11:17:20;26.52;;;21.02;;
13832;SDS011;6987;19.472;-99.276;2022-11-25T11:20:13;27.17;;;21.58;;
13832;SDS011;6987;19.472;-99.276;2022-11-25T11:22:45;29.65;;;22.35;;
13832;SDS011;6987;19.472;-99.276;2022-11-25T11:28:23;30.35;;;21.83;;
13832;SDS011;6987;19.472;-99.276;2022-11-25T11:30:53;31.55;;;22.15;;
13832;SDS011;6987;19.472;-99.276;2022-11-25T11:33:27;27.30;;;20.65;;
13832;SDS011;6987;19.472;-99.276;2022-11-25T11:35:57;27.98;;;22.15;;
13832;SDS011;6987;19.472;-99.276;2022-11-25T11:38:30;33.28;;;23.23;;
13832;SDS011;6987;19.472;-99.276;2022-11-25T11:41:04;28.70;;;20.85;;
13832;SDS011;6987;19.472;-99.276;2022-11-25T11:43:51;28.85;;;22.55;;
13832;SDS011;6987;19.472;-99.276;2022-11-25T11:46:26;35.53;;;23.17;;
13832;SDS011;6987;19.472;-99.276;2022-11-25T11:49:01;38.15;;;24.08;;
13832;SDS011;6987;19.472;-99.276;2022-11-25T11:51:32;32.63;;;23.38;;
13832;SDS011;6987;19.472;-99.276;2022-11-25T11:54:05;35.25;;;23.95;;
13832;SDS011;6987;19.472;-99.276;2022-11-25T11:56:37;37.40;;;22.77;;
13832;SDS011;6987;19.472;-99.276;2022-11-25T11:59:20;36.60;;;23.88;;
13832;SDS011;6987;19.472;-99.276;2022-11-25T12:01:57;43.08;;;24.40;;
13832;SDS011;6987;19.472;-99.276;2022-11-25T12:04:34;39.03;;;24.10;;
13832;SDS011;6987;19.472;-99.276;2022-11-25T12:07:06;35.30;;;22.98;;
13832;SDS011;6987;19.472;-99.276;2022-11-25T12:09:37;30.05;;;24.20;;
13832;SDS011;6987;19.472;-99.276;2022-11-25T12:12:12;33.63;;;23.67;;
13832;SDS011;6987;19.472;-99.276;2022-11-25T12:14:46;33.08;;;22.50;;
13832;SDS011;6987;19.472;-99.276;2022-11-25T12:17:18;37.33;;;24.15;;
13832;SDS011;6987;19.472;-99.276;2022-11-25T12:19:51;30.95;;;22.88;;
13832;SDS011;6987;19.472;-99.276;2022-11-25T12:22:24;32.72;;;23.95;;
13832;SDS011;6987;19.472;-99.276;2022-11-25T12:24:55;50.83;;;25.15;;
13832;SDS011;6987;19.472;-99.276;2022-11-25T12:27:27;34.80;;;25.80;;
13832;SDS011;6987;19.472;-99.276;2022-11-25T12:30:00;34.53;;;24.90;;
13832;SDS011;6987;19.472;-99.276;2022-11-25T12:32:37;36.30;;;25.38;;
13832;SDS011;6987;19.472;-99.276;2022-11-25T12:35:12;35.72;;;24.35;;
13832;SDS011;6987;19.472;-99.276;2022-11-25T12:37:44;31.13;;;24.25;;
13832;SDS011;6987;19.472;-99.276;2022-11-25T12:40:17;33.35;;;23.95;;
13832;SDS011;6987;19.472;-99.276;2022-11-25T12:42:50;32.10;;;22.88;;
13832;SDS011;6987;19.472;-99.276;2022-11-25T12:45:23;34.28;;;24.30;;
13832;SDS011;6987;19.472;-99.276;2022-11-25T12:47:52;31.38;;;23.23;;
13832;SDS011;6987;19.472;-99.276;2022-11-25T12:50:22;30.55;;;23.50;;
13832;SDS011;6987;19.472;-99.276;2022-11-25T12:52:55;37.40;;;23.55;;
13832;SDS011;6987;19.472;-99.276;2022-11-25T12:55:28;31.88;;;24.70;;
13832;SDS011;6987;19.472;-99.276;2022-11-25T13:06:34;32.95;;;24.58;;
13832;SDS011;6987;19.472;-99.276;2022-11-25T13:09:10;37.15;;;24.98;;
13832;SDS011;6987;19.472;-99.276;2022-11-25T13:11:49;38.10;;;24.70;;
13832;SDS011;6987;19.472;-99.276;2022-11-25T13:14:23;35.80;;;25.08;;
13832;SDS011;6987;19.472;-99.276;2022-11-25T13:16:55;42.40;;;25.05;;
13832;SDS011;6987;19.472;-99.276;2022-11-25T13:19:26;35.00;;;25.63;;
13832;SDS011;6987;19.472;-99.276;2022-11-25T13:22:00;43.72;;;26.60;;
13832;SDS011;6987;19.472;-99.276;2022-11-25T13:24:31;33.65;;;25.63;;
13832;SDS011;6987;19.472;-99.276;2022-11-25T13:27:02;38.90;;;25.23;;
13832;SDS011;6987;19.472;-99.276;2022-11-25T13:29:51;37.70;;;25.73;;
13832;SDS011;6987;19.472;-99.276;2022-11-25T13:32:24;42.17;;;24.98;;
13832;SDS011;6987;19.472;-99.276;2022-11-25T13:37:39;37.15;;;25.00;;
13832;SDS011;6987;19.472;-99.276;2022-11-25T13:40:19;43.28;;;25.02;;
13832;SDS011;6987;19.472;-99.276;2022-11-25T13:42:48;38.13;;;25.48;;
13832;SDS011;6987;19.472;-99.276;2022-11-25T13:45:23;44.10;;;25.98;;
13832;SDS011;6987;19.472;-99.276;2022-11-25T13:47:53;41.83;;;26.75;;
13832;SDS011;6987;19.472;-99.276;2022-11-25T13:50:22;37.20;;;26.33;;
13832;SDS011;6987;19.472;-99.276;2022-11-25T13:52:57;34.05;;;25.70;;
13832;SDS011;6987;19.472;-99.276;2022-11-25T13:55:31;34.72;;;26.52;;
13832;SDS011;6987;19.472;-99.276;2022-11-25T14:00:49;38.22;;;26.85;;
13832;SDS011;6987;19.472;-99.276;2022-11-25T14:03:42;43.63;;;28.73;;
13832;SDS011;6987;19.472;-99.276;2022-11-25T14:06:16;34.58;;;24.55;;
13832;SDS011;6987;19.472;-99.276;2022-11-25T14:08:53;40.22;;;27.48;;
13832;SDS011;6987;19.472;-99.276;2022-11-25T14:11:29;38.80;;;27.23;;
13832;SDS011;6987;19.472;-99.276;2022-11-25T14:14:05;35.83;;;26.40;;
13832;SDS011;6987;19.472;-99.276;2022-11-25T14:16:39;40.42;;;27.77;;
13832;SDS011;6987;19.472;-99.276;2022-11-25T14:22:02;38.15;;;27.58;;
13832;SDS011;6987;19.472;-99.276;2022-11-25T14:24:39;45.60;;;30.40;;
13832;SDS011;6987;19.472;-99.276;2022-11-25T14:27:12;50.45;;;33.22;;
13832;SDS011;6987;19.472;-99.276;2022-11-25T14:29:44;51.55;;;35.95;;
13832;SDS011;6987;19.472;-99.276;2022-11-25T14:32:14;55.35;;;38.50;;
13832;SDS011;6987;19.472;-99.276;2022-11-25T14:34:47;70.30;;;46.85;;
13832;SDS011;6987;19.472;-99.276;2022-11-25T14:37:16;70.47;;;46.47;;
13832;SDS011;6987;19.472;-99.276;2022-11-25T14:39:51;70.10;;;45.88;;
13832;SDS011;6987;19.472;-99.276;2022-11-25T14:42:20;63.33;;;41.08;;
13832;SDS011;6987;19.472;-99.276;2022-11-25T14:44:50;55.50;;;35.47;;
13832;SDS011;6987;19.472;-99.276;2022-11-25T14:47:20;50.15;;;33.72;;
13832;SDS011;6987;19.472;-99.276;2022-11-25T14:49:50;48.35;;;31.90;;
13832;SDS011;6987;19.472;-99.276;2022-11-25T14:52:20;50.92;;;32.33;;